Аэропорт
Магадан (UHMM)

 UHMM / GDX
ЗЦ Хабаровск
Магадан (UHMM)
Магадан (UHMM)
 59.91100, 150.72000  / 574 ft

 UHMM 220630Z 27002MPS 9999 NSC M17/M25 Q1008 R10/82//55 NOSIG RMK QFE742
 TAF UHMM 220146Z 2203/2309 10003G08MPS 9999 NSC TEMPO 2207/2308 4000 -SN BKN020
UHMM_AIP_1910
показать схемы
Название сценария Тип сценария Flight Simulator 9 Flight Simulator X Prepar3D v2 Prepar3D v3 Prepar3D v4 xPlane
"Welcome to Kolyma" UHMM for P3Dv4 by Shestenko Sergey Vladimirovich платный
uhmm-scenery-fs9-0811 бесплатный
UHMM_FSX_1.01 Andrew Bolowin бесплатный


2020 © VATRUS division (Privacy Policy)